createdAt,value
2018-04-23T00:02:13.547Z,17.00
2018-04-23T00:04:42.817Z,17.10
2018-04-23T00:07:11.987Z,17.10
2018-04-23T00:09:42.243Z,17.20
2018-04-23T00:12:11.404Z,17.10
2018-04-23T00:14:40.600Z,17.20
2018-04-23T00:17:10.545Z,17.20
2018-04-23T00:19:39.720Z,17.10
2018-04-23T00:22:08.971Z,17.20
2018-04-23T00:24:38.248Z,17.10
2018-04-23T00:27:07.552Z,17.10
2018-04-23T00:29:36.975Z,17.10
2018-04-23T00:32:06.352Z,17.10
2018-04-23T00:34:35.657Z,17.10
2018-04-23T00:37:04.857Z,17.10
2018-04-23T00:39:34.358Z,17.10
2018-04-23T00:42:03.533Z,17.00
2018-04-23T00:44:33.519Z,16.90
2018-04-23T00:47:02.761Z,16.90
2018-04-23T00:49:32.075Z,16.90
2018-04-23T00:52:01.260Z,16.90
2018-04-23T00:54:30.460Z,16.80
2018-04-23T00:56:59.771Z,16.80
2018-04-23T00:59:28.962Z,16.80
2018-04-23T01:01:58.155Z,16.80
2018-04-23T01:04:27.374Z,16.80
2018-04-23T01:06:56.865Z,16.70
2018-04-23T01:09:26.170Z,16.80
2018-04-23T01:11:55.453Z,16.70
2018-04-23T01:14:24.577Z,16.70
2018-04-23T01:16:53.863Z,16.70
2018-04-23T01:19:23.252Z,16.60
2018-04-23T01:21:52.554Z,16.70
2018-04-23T01:24:21.768Z,16.60
2018-04-23T01:26:50.919Z,16.60
2018-04-23T01:29:20.912Z,16.40
2018-04-23T01:31:50.281Z,16.40
2018-04-23T01:34:19.578Z,16.30
2018-04-23T01:36:48.760Z,16.30
2018-04-23T01:39:18.078Z,16.20
2018-04-23T01:41:47.246Z,16.10
2018-04-23T01:44:16.613Z,16.00
2018-04-23T01:46:45.799Z,16.00
2018-04-23T01:49:15.094Z,15.90
2018-04-23T01:51:44.510Z,15.80
2018-04-23T01:54:14.494Z,15.70
2018-04-23T01:56:43.818Z,15.70
2018-04-23T01:59:13.042Z,15.60
2018-04-23T02:01:42.286Z,15.60
2018-04-23T02:04:11.629Z,15.50
2018-04-23T02:06:41.016Z,15.50
2018-04-23T02:09:11.041Z,15.50
2018-04-23T02:11:40.264Z,15.50
2018-04-23T02:14:10.249Z,15.40
2018-04-23T02:16:40.253Z,15.40
2018-04-23T02:19:09.460Z,15.40
2018-04-23T02:21:38.897Z,15.40
2018-04-23T02:24:08.285Z,15.30
2018-04-23T02:26:37.516Z,15.30
2018-04-23T02:29:06.745Z,15.20
2018-04-23T02:31:36.152Z,15.10
2018-04-23T02:34:05.337Z,15.00
2018-04-23T02:36:34.633Z,15.00
2018-04-23T02:39:03.961Z,14.90
2018-04-23T02:41:33.384Z,14.80
2018-04-23T02:44:03.386Z,14.80
2018-04-23T02:46:33.349Z,14.70
2018-04-23T02:49:02.683Z,14.70
2018-04-23T02:51:31.968Z,14.60
2018-04-23T02:54:01.233Z,14.60
2018-04-23T02:56:31.516Z,14.50
2018-04-23T02:59:01.662Z,14.50
2018-04-23T03:01:31.197Z,14.40
2018-04-23T03:04:00.460Z,14.40
2018-04-23T03:06:29.768Z,14.40
2018-04-23T03:08:59.760Z,14.30
2018-04-23T03:11:29.002Z,14.30
2018-04-23T03:13:58.248Z,14.30
2018-04-23T03:16:27.658Z,14.30
2018-04-23T03:18:57.760Z,14.20
2018-04-23T03:21:27.934Z,14.30
2018-04-23T03:23:57.695Z,14.20
2018-04-23T03:26:26.894Z,14.20
2018-04-23T03:28:56.117Z,14.20
2018-04-23T03:31:26.238Z,14.10
2018-04-23T03:33:55.517Z,14.00
2018-04-23T03:36:24.780Z,14.00
2018-04-23T03:38:54.060Z,13.90
2018-04-23T03:41:23.228Z,13.90
2018-04-23T03:43:52.580Z,13.80
2018-04-23T03:46:21.815Z,13.70
2018-04-23T03:48:51.188Z,13.70
2018-04-23T03:51:20.603Z,13.70
2018-04-23T03:53:49.995Z,13.70
2018-04-23T03:56:19.004Z,13.70
2018-04-23T03:58:48.201Z,13.70
2018-04-23T04:01:18.299Z,13.70
2018-04-23T04:03:47.571Z,13.70
2018-04-23T04:06:16.949Z,13.70
2018-04-23T04:08:46.369Z,13.70
2018-04-23T04:11:16.519Z,13.80
2018-04-23T04:13:57.581Z,13.70
2018-04-23T04:16:38.726Z,13.80
2018-04-23T04:19:11.041Z,13.80
2018-04-23T04:21:40.516Z,13.90
2018-04-23T04:24:09.804Z,14.00
2018-04-23T04:26:39.147Z,14.00
2018-04-23T04:29:08.386Z,14.00
2018-04-23T04:31:39.232Z,13.90
2018-04-23T04:34:08.415Z,14.00
2018-04-23T04:36:37.757Z,13.90
2018-04-23T04:39:07.019Z,13.90
2018-04-23T04:41:36.578Z,13.80
2018-04-23T04:44:05.829Z,13.90
2018-04-23T04:46:35.024Z,13.80
2018-04-23T04:49:04.411Z,13.80
2018-04-23T04:51:33.927Z,13.90
2018-04-23T04:54:03.451Z,13.90
2018-04-23T04:56:32.847Z,14.00
2018-04-23T04:59:02.261Z,14.20
2018-04-23T05:01:31.469Z,14.30
2018-04-23T05:04:01.433Z,14.60
2018-04-23T05:06:34.132Z,14.60
2018-04-23T05:09:03.435Z,14.80
2018-04-23T05:11:32.946Z,14.90
2018-04-23T05:14:02.545Z,15.10
2018-04-23T05:16:31.841Z,15.30
2018-04-23T05:19:01.032Z,15.40
2018-04-23T05:21:30.347Z,15.50
2018-04-23T05:23:59.633Z,15.50
2018-04-23T05:26:28.995Z,15.50
2018-04-23T05:28:58.399Z,15.50
2018-04-23T05:31:27.611Z,15.50
2018-04-23T05:33:56.766Z,15.60
2018-04-23T05:36:26.343Z,15.70
2018-04-23T05:38:55.552Z,15.80
2018-04-23T05:41:24.727Z,15.90
2018-04-23T05:43:54.047Z,16.00
2018-04-23T05:46:23.340Z,16.10
2018-04-23T05:48:52.577Z,16.40
2018-04-23T05:51:21.788Z,16.50
2018-04-23T05:53:51.052Z,16.70
2018-04-23T05:56:20.317Z,16.80
2018-04-23T05:58:49.565Z,16.90
2018-04-23T06:01:18.757Z,17.00
2018-04-23T06:03:47.944Z,17.10
2018-04-23T06:06:17.175Z,17.10
2018-04-23T06:08:46.413Z,17.30
2018-04-23T06:11:15.600Z,17.40
2018-04-23T06:13:45.024Z,17.50
2018-04-23T06:16:14.308Z,17.60
2018-04-23T06:18:43.573Z,17.80
2018-04-23T06:21:12.843Z,18.00
2018-04-23T06:23:42.019Z,18.20
2018-04-23T06:26:11.429Z,18.50
2018-04-23T06:28:40.722Z,18.80
2018-04-23T06:31:10.029Z,19.00
2018-04-23T06:33:39.271Z,19.30
2018-04-23T06:36:08.637Z,19.50
2018-04-23T06:38:37.934Z,19.70
2018-04-23T06:41:07.072Z,20.00
2018-04-23T06:43:36.427Z,20.20
2018-04-23T06:46:05.873Z,20.40
2018-04-23T06:48:35.010Z,20.60
2018-04-23T06:51:04.322Z,20.80
2018-04-23T06:53:33.505Z,21.10
2018-04-23T06:56:02.818Z,21.40
2018-04-23T06:58:32.534Z,21.60
2018-04-23T07:01:01.756Z,21.80
2018-04-23T07:03:30.978Z,21.90
2018-04-23T07:06:01.042Z,22.10
2018-04-23T07:08:30.351Z,22.10
2018-04-23T07:10:59.546Z,22.20
2018-04-23T07:13:28.804Z,22.20
2018-04-23T07:15:58.791Z,22.40
2018-04-23T07:18:28.114Z,22.40
2018-04-23T07:20:58.175Z,23.20
2018-04-23T07:23:27.329Z,23.20
2018-04-23T07:25:57.302Z,24.00
2018-04-23T07:28:26.714Z,24.00
2018-04-23T07:30:56.093Z,24.40
2018-04-23T07:33:25.249Z,24.70
2018-04-23T07:35:55.205Z,25.00
2018-04-23T07:38:24.391Z,25.00
2018-04-23T07:40:53.705Z,25.10
2018-04-23T07:43:22.908Z,25.30
2018-04-23T07:45:52.074Z,25.50
2018-04-23T07:48:22.070Z,25.80
2018-04-23T07:50:51.485Z,25.80
2018-04-23T07:53:21.752Z,25.90
2018-04-23T07:55:52.137Z,25.90
2018-04-23T07:58:21.413Z,25.90
2018-04-23T08:00:51.492Z,25.90
2018-04-23T08:03:22.734Z,25.90
2018-04-23T08:05:51.953Z,26.00
2018-04-23T08:08:21.434Z,25.90
2018-04-23T08:10:50.622Z,25.80
2018-04-23T08:13:19.834Z,25.70
2018-04-23T08:15:49.046Z,25.50
2018-04-23T08:18:21.112Z,25.50
2018-04-23T08:20:50.347Z,25.50
2018-04-23T08:23:20.409Z,25.70
2018-04-23T08:25:49.625Z,25.70
2018-04-23T08:28:18.895Z,25.80
2018-04-23T08:30:48.412Z,25.90
2018-04-23T08:33:21.424Z,25.80
2018-04-23T08:35:50.888Z,25.70
2018-04-23T08:38:20.172Z,25.60
2018-04-23T08:40:49.378Z,25.60
2018-04-23T08:43:18.704Z,25.70
2018-04-23T08:45:48.068Z,25.80
2018-04-23T08:48:21.210Z,25.90
2018-04-23T08:50:50.467Z,26.10
2018-04-23T08:53:19.855Z,26.40
2018-04-23T08:55:49.687Z,27.00
2018-04-23T08:58:18.867Z,27.00
2018-04-23T09:00:48.775Z,27.60
2018-04-23T09:03:32.871Z,27.60
2018-04-23T09:06:02.024Z,27.80
2018-04-23T09:08:31.261Z,27.90
2018-04-23T09:11:00.788Z,27.40
2018-04-23T09:13:32.470Z,26.70
2018-04-23T09:16:02.077Z,26.00
2018-04-23T09:18:32.069Z,25.10
2018-04-23T09:21:01.513Z,25.10
2018-04-23T09:23:32.620Z,24.50
2018-04-23T09:26:02.712Z,23.80
2018-04-23T09:28:33.269Z,23.80
2018-04-23T09:31:02.649Z,23.40
2018-04-23T09:33:32.961Z,23.10
2018-04-23T09:36:02.208Z,22.90
2018-04-23T09:38:32.338Z,22.60
2018-04-23T09:41:02.305Z,22.50
2018-04-23T09:43:31.498Z,22.50
2018-04-23T09:46:00.836Z,22.30
2018-04-23T09:48:29.988Z,22.10
2018-04-23T09:50:59.708Z,22.00
2018-04-23T09:53:28.957Z,21.60
2018-04-23T09:55:58.149Z,21.30
2018-04-23T09:58:27.570Z,21.00
2018-04-23T10:00:57.587Z,20.20
2018-04-23T10:03:42.475Z,20.00
2018-04-23T10:06:11.691Z,20.00
2018-04-23T10:08:40.834Z,19.80
2018-04-23T10:11:10.773Z,19.20
2018-04-23T10:13:39.977Z,19.20
2018-04-23T10:16:09.349Z,18.80
2018-04-23T10:18:38.554Z,18.20
2018-04-23T10:21:08.689Z,17.10
2018-04-23T10:23:38.120Z,17.10
2018-04-23T10:26:07.304Z,16.70
2018-04-23T10:28:36.834Z,16.50
2018-04-23T10:31:05.993Z,16.20
2018-04-23T10:33:35.268Z,16.10
2018-04-23T10:36:05.244Z,15.80
2018-04-23T10:38:34.540Z,15.80
2018-04-23T10:41:03.942Z,15.80
2018-04-23T10:43:33.083Z,15.80
2018-04-23T10:46:02.273Z,15.70
2018-04-23T10:48:31.485Z,15.70
2018-04-23T10:51:01.587Z,15.70
2018-04-23T10:53:30.771Z,15.70
2018-04-23T10:56:00.126Z,15.90
2018-04-23T10:58:29.374Z,16.00
2018-04-23T11:00:58.561Z,16.30
2018-04-23T11:03:27.948Z,16.50
2018-04-23T11:05:57.151Z,16.80
2018-04-23T11:08:26.549Z,17.10
2018-04-23T11:10:55.714Z,17.40
2018-04-23T11:13:25.618Z,17.70
2018-04-23T11:15:55.565Z,17.70
2018-04-23T11:18:24.976Z,17.70
2018-04-23T11:20:54.188Z,17.90
2018-04-23T11:23:23.391Z,18.00
2018-04-23T11:25:52.593Z,18.20
2018-04-23T11:28:21.785Z,18.40
2018-04-23T11:30:50.978Z,18.50
2018-04-23T11:33:20.981Z,18.60
2018-04-23T11:35:50.286Z,18.70
2018-04-23T11:38:19.277Z,18.90
2018-04-23T11:40:48.525Z,19.00
2018-04-23T11:43:18.634Z,19.40
2018-04-23T11:45:47.916Z,19.40
2018-04-23T11:48:17.400Z,19.60
2018-04-23T11:50:46.704Z,19.90
2018-04-23T11:53:15.923Z,20.20
2018-04-23T11:55:45.195Z,20.40
2018-04-23T11:58:14.468Z,20.50
2018-04-23T12:00:44.514Z,20.60
2018-04-23T12:03:13.815Z,20.70
2018-04-23T12:05:43.019Z,20.60
2018-04-23T12:08:12.317Z,20.70
2018-04-23T12:10:41.632Z,20.80
2018-04-23T12:13:10.848Z,20.90
2018-04-23T12:15:40.132Z,21.20
2018-04-23T12:18:10.145Z,21.50
2018-04-23T12:20:39.530Z,21.80
2018-04-23T12:23:08.737Z,22.20
2018-04-23T12:25:38.101Z,22.70
2018-04-23T12:28:07.355Z,23.30
2018-04-23T12:30:36.506Z,23.80
2018-04-23T12:33:05.715Z,24.20
2018-04-23T12:35:34.951Z,24.50
2018-04-23T12:38:04.265Z,24.50
2018-04-23T12:40:34.260Z,24.20
2018-04-23T12:43:03.582Z,24.20
2018-04-23T12:45:33.660Z,23.90
2018-04-23T12:48:02.843Z,23.80
2018-04-23T12:50:32.049Z,23.80
2018-04-23T12:53:01.512Z,23.60
2018-04-23T12:55:31.526Z,23.40
2018-04-23T12:58:01.485Z,23.30
2018-04-23T13:00:30.793Z,23.30
2018-04-23T13:03:00.090Z,23.20
2018-04-23T13:05:29.473Z,23.00
2018-04-23T13:07:58.772Z,23.00
2018-04-23T13:10:28.062Z,23.10
2018-04-23T13:12:57.497Z,23.30
2018-04-23T13:15:26.795Z,23.50
2018-04-23T13:17:56.403Z,23.50
2018-04-23T13:20:25.788Z,23.50
2018-04-23T13:22:55.324Z,23.60
2018-04-23T13:25:24.612Z,23.80
2018-04-23T13:27:53.757Z,24.10
2018-04-23T13:30:23.213Z,24.40
2018-04-23T13:32:52.519Z,24.60
2018-04-23T13:35:21.745Z,24.60
2018-04-23T13:37:51.011Z,24.60
2018-04-23T13:40:20.179Z,24.70
2018-04-23T13:42:49.512Z,25.00
2018-04-23T13:45:18.813Z,25.20
2018-04-23T13:47:48.102Z,25.40
2018-04-23T13:50:17.261Z,25.60
2018-04-23T13:52:47.202Z,25.50
2018-04-23T13:55:16.441Z,25.50
2018-04-23T13:57:45.672Z,25.30
2018-04-23T14:00:15.684Z,25.40
2018-04-23T14:02:45.752Z,25.30
2018-04-23T14:05:14.964Z,25.30
2018-04-23T14:07:44.259Z,25.20
2018-04-23T14:10:13.288Z,25.10
2018-04-23T14:12:43.335Z,24.60
2018-04-23T14:15:12.515Z,24.60
2018-04-23T14:17:41.765Z,24.40
2018-04-23T14:20:11.261Z,24.20
2018-04-23T14:22:40.459Z,24.20
2018-04-23T14:25:09.685Z,24.20
2018-04-23T14:27:38.967Z,24.20
2018-04-23T14:30:08.262Z,24.40
2018-04-23T14:32:37.464Z,24.60
2018-04-23T14:35:06.758Z,24.80
2018-04-23T14:37:35.934Z,24.80
2018-04-23T14:40:05.104Z,24.80
2018-04-23T14:42:34.251Z,24.70
2018-04-23T14:45:03.436Z,24.50
2018-04-23T14:47:32.752Z,24.40
2018-04-23T14:50:02.052Z,24.40
2018-04-23T14:52:31.245Z,24.40
2018-04-23T14:55:00.464Z,24.30
2018-04-23T14:57:29.840Z,24.30
2018-04-23T14:59:59.105Z,24.20
2018-04-23T15:02:29.161Z,24.20
2018-04-23T15:04:58.464Z,24.20
2018-04-23T15:07:27.676Z,24.10
2018-04-23T15:09:56.869Z,23.90
2018-04-23T15:12:26.048Z,23.80
2018-04-23T15:14:55.263Z,23.70
2018-04-23T15:17:24.654Z,23.40
2018-04-23T15:19:53.962Z,23.20
2018-04-23T15:22:23.135Z,23.20
2018-04-23T15:24:52.361Z,23.10
2018-04-23T15:27:21.633Z,23.10
2018-04-23T15:29:50.889Z,23.10
2018-04-23T15:32:20.189Z,23.10
2018-04-23T15:34:49.501Z,23.10
2018-04-23T15:37:19.666Z,22.90
2018-04-23T15:39:48.875Z,22.90
2018-04-23T15:42:18.055Z,22.80
2018-04-23T15:44:47.313Z,22.90
2018-04-23T15:47:17.434Z,23.20
2018-04-23T15:49:46.564Z,23.20
2018-04-23T15:52:15.953Z,23.40
2018-04-23T15:54:45.121Z,23.60
2018-04-23T15:57:14.429Z,23.90
2018-04-23T15:59:44.410Z,24.20
2018-04-23T16:02:13.654Z,24.20
2018-04-23T16:04:42.996Z,24.20
2018-04-23T16:07:12.203Z,24.20
2018-04-23T16:09:41.599Z,24.20
2018-04-23T16:12:10.819Z,24.20
2018-04-23T16:14:39.986Z,24.40
2018-04-23T16:17:09.199Z,24.40
2018-04-23T16:19:38.569Z,24.30
2018-04-23T16:22:08.107Z,24.10
2018-04-23T16:24:37.317Z,23.90
2018-04-23T16:27:06.494Z,23.70
2018-04-23T16:29:35.824Z,23.50
2018-04-23T16:32:05.528Z,23.30
2018-04-23T16:34:34.734Z,23.10
2018-04-23T16:37:03.923Z,22.90
2018-04-23T16:39:33.135Z,22.80
2018-04-23T16:42:03.066Z,22.70
2018-04-23T16:44:32.997Z,22.60
2018-04-23T16:47:03.105Z,22.50
2018-04-23T16:49:33.045Z,22.20
2018-04-23T16:52:05.221Z,22.20
2018-04-23T16:54:34.473Z,22.10
2018-04-23T16:57:04.477Z,21.90
2018-04-23T16:59:33.845Z,21.90
2018-04-23T17:02:03.058Z,21.80
2018-04-23T17:04:32.289Z,21.60
2018-04-23T17:07:01.488Z,21.30
2018-04-23T17:09:31.457Z,20.90
2018-04-23T17:12:00.705Z,20.80
2018-04-23T17:14:34.271Z,20.50
2018-04-23T17:17:03.456Z,20.50
2018-04-23T17:19:32.700Z,20.40
2018-04-23T17:22:01.863Z,20.20
2018-04-23T17:24:31.258Z,20.10
2018-04-23T17:27:00.587Z,19.90
2018-04-23T17:29:30.583Z,19.70
2018-04-23T17:31:59.763Z,19.60
2018-04-23T17:34:29.080Z,19.50
2018-04-23T17:36:58.300Z,19.40
2018-04-23T17:39:27.496Z,19.40
2018-04-23T17:41:56.694Z,19.20
2018-04-23T17:44:25.995Z,19.10
2018-04-23T17:46:55.309Z,19.00
2018-04-23T17:49:24.548Z,19.00
2018-04-23T17:51:53.642Z,18.90
2018-04-23T17:54:22.884Z,18.90
2018-04-23T17:56:52.256Z,18.80
2018-04-23T17:59:21.422Z,18.70
2018-04-23T18:01:50.647Z,18.70
2018-04-23T18:04:19.957Z,18.60
2018-04-23T18:06:49.170Z,18.50
2018-04-23T18:09:18.382Z,18.50
2018-04-23T18:11:48.410Z,18.50
2018-04-23T18:14:17.766Z,18.50
2018-04-23T18:16:47.020Z,18.50
2018-04-23T18:19:16.949Z,18.50
2018-04-23T18:21:46.890Z,18.40
2018-04-23T18:24:16.095Z,18.40
2018-04-23T18:26:45.227Z,18.40
2018-04-23T18:29:14.704Z,18.40
2018-04-23T18:31:44.097Z,18.30
2018-04-23T18:34:13.402Z,18.30
2018-04-23T18:36:45.640Z,18.30
2018-04-23T18:39:15.847Z,18.30
2018-04-23T18:41:45.024Z,18.20
2018-04-23T18:44:14.284Z,18.20
2018-04-23T18:46:43.627Z,18.20
2018-04-23T18:49:12.616Z,18.20
2018-04-23T18:51:41.829Z,18.20
2018-04-23T18:54:11.183Z,18.10
2018-04-23T18:56:40.377Z,18.20
2018-04-23T18:59:09.624Z,18.10
2018-04-23T19:01:38.621Z,18.00
2018-04-23T19:04:07.772Z,18.00
2018-04-23T19:06:36.747Z,17.90
2018-04-23T19:09:05.716Z,17.90
2018-04-23T19:11:35.591Z,17.80
2018-04-23T19:14:04.970Z,17.80
2018-04-23T19:16:35.116Z,17.70
2018-04-23T19:19:04.486Z,17.70
2018-04-23T19:21:33.666Z,17.70
2018-04-23T19:24:03.596Z,17.50
2018-04-23T19:26:32.775Z,17.50
2018-04-23T19:29:03.340Z,17.40
2018-04-23T19:31:32.518Z,17.30
2018-04-23T19:34:01.841Z,17.10
2018-04-23T19:36:32.307Z,16.90
2018-04-23T19:39:01.655Z,16.90
2018-04-23T19:41:31.258Z,16.80
2018-04-23T19:44:02.099Z,16.70
2018-04-23T19:46:31.370Z,16.60
2018-04-23T19:49:01.326Z,16.50
2018-04-23T19:51:30.504Z,16.50
2018-04-23T19:53:59.813Z,16.50
2018-04-23T19:56:29.052Z,16.50
2018-04-23T19:58:58.321Z,16.50
2018-04-23T20:01:27.564Z,16.40
2018-04-23T20:03:56.744Z,16.40
2018-04-23T20:06:26.004Z,16.30
2018-04-23T20:08:55.159Z,16.20
2018-04-23T20:11:25.318Z,16.00
2018-04-23T20:13:54.706Z,16.00
2018-04-23T20:16:23.942Z,15.90
2018-04-23T20:18:53.068Z,15.80
2018-04-23T20:21:22.298Z,15.90
2018-04-23T20:23:51.488Z,15.90
2018-04-23T20:26:20.813Z,15.90
2018-04-23T20:28:49.993Z,15.90
2018-04-23T20:31:19.195Z,16.00
2018-04-23T20:33:48.440Z,16.00
2018-04-23T20:36:17.706Z,15.90
2018-04-23T20:38:46.887Z,15.80
2018-04-23T20:41:16.219Z,15.70
2018-04-23T20:43:45.550Z,15.60
2018-04-23T20:46:14.799Z,15.50
2018-04-23T20:48:47.875Z,15.30
2018-04-23T20:51:17.036Z,15.20
2018-04-23T20:53:46.314Z,15.10
2018-04-23T20:56:16.764Z,15.00
2018-04-23T20:58:46.754Z,14.80
2018-04-23T21:01:16.064Z,14.80
2018-04-23T21:03:46.377Z,14.70
2018-04-23T21:06:15.551Z,14.60
2018-04-23T21:08:44.715Z,14.60
2018-04-23T21:11:17.696Z,14.50
2018-04-23T21:13:46.942Z,14.50
2018-04-23T21:16:16.135Z,14.50
2018-04-23T21:18:45.267Z,14.50
2018-04-23T21:21:14.673Z,14.50
2018-04-23T21:23:43.940Z,14.50
2018-04-23T21:26:13.092Z,14.50
2018-04-23T21:28:43.123Z,14.40
2018-04-23T21:31:13.063Z,14.40
2018-04-23T21:33:42.253Z,14.40
2018-04-23T21:36:11.562Z,14.40
2018-04-23T21:38:40.766Z,14.40
2018-04-23T21:41:09.981Z,14.50
2018-04-23T21:43:39.267Z,14.50
2018-04-23T21:46:08.379Z,14.70
2018-04-23T21:48:37.722Z,14.80
2018-04-23T21:51:07.692Z,14.80
2018-04-23T21:53:36.867Z,14.80
2018-04-23T21:56:06.047Z,14.80
2018-04-23T21:58:35.474Z,14.80
2018-04-23T22:01:04.878Z,14.70
2018-04-23T22:03:34.096Z,14.60
2018-04-23T22:06:03.379Z,14.50
2018-04-23T22:08:32.570Z,14.50
2018-04-23T22:11:01.805Z,14.40
2018-04-23T22:13:31.151Z,14.30
2018-04-23T22:16:00.473Z,14.30
2018-04-23T22:18:29.771Z,14.30
2018-04-23T22:20:58.898Z,14.20
2018-04-23T22:23:28.156Z,14.20
2018-04-23T22:25:57.429Z,14.10
2018-04-23T22:28:27.373Z,14.10
2018-04-23T22:30:56.678Z,14.10
2018-04-23T22:33:25.852Z,14.00
2018-04-23T22:35:54.996Z,14.00
2018-04-23T22:38:24.374Z,14.00
2018-04-23T22:40:53.665Z,13.90
2018-04-23T22:43:23.372Z,13.90
2018-04-23T22:45:52.536Z,13.80
2018-04-23T22:48:21.749Z,13.70
2018-04-23T22:50:51.712Z,13.70
2018-04-23T22:53:20.999Z,13.70
2018-04-23T22:55:50.256Z,13.60
2018-04-23T22:58:20.312Z,13.60
2018-04-23T23:00:49.615Z,13.60
2018-04-23T23:03:20.754Z,13.60
2018-04-23T23:05:50.023Z,13.60
2018-04-23T23:08:19.315Z,13.60
2018-04-23T23:10:48.490Z,13.60
2018-04-23T23:13:17.761Z,13.60
2018-04-23T23:15:46.988Z,13.60
2018-04-23T23:18:16.193Z,13.60
2018-04-23T23:20:45.386Z,13.60
2018-04-23T23:23:14.565Z,13.60
2018-04-23T23:25:44.009Z,13.60
2018-04-23T23:28:16.726Z,13.60
2018-04-23T23:30:45.944Z,13.70
2018-04-23T23:33:15.174Z,13.70
2018-04-23T23:35:44.410Z,13.70
2018-04-23T23:38:13.621Z,13.80
2018-04-23T23:40:42.788Z,13.80
2018-04-23T23:43:12.035Z,13.80
2018-04-23T23:45:41.245Z,13.80
2018-04-23T23:48:11.273Z,13.80
2018-04-23T23:50:41.310Z,13.70
2018-04-23T23:53:12.555Z,13.70
2018-04-23T23:55:42.480Z,13.70
2018-04-23T23:58:11.810Z,13.70
